createdAt,value
2023-03-21T00:00:13.111Z,0.00
2023-03-21T00:01:12.116Z,0.00
2023-03-21T00:02:12.136Z,0.00
2023-03-21T00:03:12.066Z,0.00
2023-03-21T00:04:12.228Z,0.00
2023-03-21T00:05:15.857Z,0.00
2023-03-21T00:06:12.023Z,0.00
2023-03-21T00:07:12.014Z,0.00
2023-03-21T00:08:11.995Z,0.00
2023-03-21T00:09:11.972Z,0.00
2023-03-21T00:10:18.073Z,0.00
2023-03-21T00:11:12.947Z,0.00
2023-03-21T00:12:11.944Z,0.00
2023-03-21T00:13:11.940Z,0.00
2023-03-21T00:14:11.938Z,0.00
2023-03-21T00:15:11.877Z,0.00
2023-03-21T00:16:16.336Z,0.00
2023-03-21T00:17:12.857Z,0.00
2023-03-21T00:18:11.912Z,0.00
2023-03-21T00:19:11.863Z,0.00
2023-03-21T00:20:11.850Z,0.00
2023-03-21T00:22:12.826Z,0.00
2023-03-21T00:23:11.776Z,0.00
2023-03-21T00:24:11.825Z,0.00
2023-03-21T00:25:11.761Z,0.00
2023-03-21T00:26:11.765Z,0.00
2023-03-21T00:27:38.399Z,0.00
2023-03-21T00:28:12.730Z,0.00
2023-03-21T00:29:11.731Z,0.00
2023-03-21T00:30:11.709Z,0.00
2023-03-21T00:31:11.697Z,0.00
2023-03-21T00:32:11.702Z,0.00
2023-03-21T00:33:22.054Z,0.00
2023-03-21T00:35:47.955Z,0.00
2023-03-21T00:36:13.121Z,0.00
2023-03-21T00:37:11.631Z,0.00
2023-03-21T00:38:11.606Z,0.00
2023-03-21T00:39:11.575Z,0.00
2023-03-21T00:40:23.138Z,0.00
2023-03-21T00:41:21.346Z,0.00
2023-03-21T00:42:12.575Z,0.00
2023-03-21T00:43:11.508Z,0.00
2023-03-21T00:44:11.655Z,0.00
2023-03-21T00:45:11.501Z,0.00
2023-03-21T00:46:11.549Z,0.00
2023-03-21T00:47:11.487Z,0.00
2023-03-21T00:48:11.532Z,0.00
2023-03-21T00:49:11.492Z,0.00
2023-03-21T00:50:11.442Z,0.00
2023-03-21T00:51:11.417Z,0.00
2023-03-21T00:52:27.536Z,0.00
2023-03-21T00:53:12.390Z,0.00
2023-03-21T00:54:11.392Z,0.00
2023-03-21T00:55:11.376Z,0.00
2023-03-21T00:56:11.377Z,0.00
2023-03-21T00:57:11.339Z,0.00
2023-03-21T00:58:11.357Z,0.00
2023-03-21T00:59:11.347Z,0.00
2023-03-21T01:00:11.329Z,0.00
2023-03-21T01:01:11.347Z,0.00
2023-03-21T01:02:11.335Z,0.00
2023-03-21T01:03:23.783Z,0.00
2023-03-21T01:04:12.296Z,0.00
2023-03-21T01:05:11.241Z,0.00
2023-03-21T01:06:11.250Z,0.00
2023-03-21T01:07:11.214Z,0.00
2023-03-21T01:08:25.062Z,0.00
2023-03-21T01:09:12.184Z,0.00
2023-03-21T01:10:11.205Z,0.00
2023-03-21T01:11:11.151Z,0.00
2023-03-21T01:12:11.181Z,0.00
2023-03-21T01:13:11.119Z,0.00
2023-03-21T01:14:22.005Z,0.00
2023-03-21T01:15:12.097Z,0.00
2023-03-21T01:16:11.124Z,0.00
2023-03-21T01:17:11.079Z,0.00
2023-03-21T01:18:11.126Z,0.00
2023-03-21T01:19:22.041Z,0.00
2023-03-21T01:20:12.071Z,0.00
2023-03-21T01:21:11.028Z,0.00
2023-03-21T01:22:11.027Z,0.00
2023-03-21T01:23:11.002Z,0.00
2023-03-21T01:24:11.043Z,0.00
2023-03-21T01:25:21.960Z,0.00
2023-03-21T01:26:11.993Z,0.00
2023-03-21T01:27:10.956Z,0.00
2023-03-21T01:28:10.962Z,0.00
2023-03-21T01:29:10.942Z,0.00
2023-03-21T01:30:19.090Z,0.00
2023-03-21T01:31:11.922Z,0.00
2023-03-21T01:32:10.937Z,0.00
2023-03-21T01:33:10.868Z,0.00
2023-03-21T01:34:10.897Z,0.00
2023-03-21T01:35:10.863Z,0.00
2023-03-21T01:36:13.479Z,0.00
2023-03-21T01:37:10.840Z,0.00
2023-03-21T01:38:10.823Z,0.00
2023-03-21T01:39:10.802Z,0.00
2023-03-21T01:40:10.829Z,0.00
2023-03-21T01:41:19.259Z,0.00
2023-03-21T01:42:11.865Z,0.00
2023-03-21T01:43:10.738Z,0.00
2023-03-21T01:44:10.742Z,0.00
2023-03-21T01:45:10.722Z,0.00
2023-03-21T01:46:10.798Z,0.00
2023-03-21T01:47:12.487Z,0.00
2023-03-21T01:48:10.714Z,0.00
2023-03-21T01:49:10.661Z,0.00
2023-03-21T01:50:10.664Z,0.00
2023-03-21T01:51:10.630Z,0.00
2023-03-21T01:52:15.104Z,0.00
2023-03-21T01:53:11.619Z,0.00
2023-03-21T01:54:10.637Z,0.00
2023-03-21T01:55:10.589Z,0.00
2023-03-21T01:56:10.608Z,0.00
2023-03-21T01:57:10.551Z,0.00
2023-03-21T01:58:10.636Z,0.00
2023-03-21T01:59:10.526Z,0.00
2023-03-21T02:00:10.535Z,0.00
2023-03-21T02:01:10.641Z,0.00
2023-03-21T02:02:10.514Z,0.00
2023-03-21T02:03:15.284Z,0.00
2023-03-21T02:04:11.564Z,0.00
2023-03-21T02:05:10.472Z,0.00
2023-03-21T02:06:10.452Z,0.00
2023-03-21T02:07:10.436Z,0.00
2023-03-21T02:08:10.447Z,0.00
2023-03-21T02:09:10.409Z,0.00
2023-03-21T02:10:10.440Z,0.00
2023-03-21T02:11:10.383Z,0.00
2023-03-21T02:12:10.448Z,0.00
2023-03-21T02:13:10.346Z,0.00
2023-03-21T02:14:13.279Z,0.00
2023-03-21T02:15:10.357Z,0.00
2023-03-21T02:16:10.363Z,0.00
2023-03-21T02:17:10.325Z,0.00
2023-03-21T02:18:10.331Z,0.00
2023-03-21T02:19:10.792Z,0.00
2023-03-21T02:20:10.296Z,0.00
2023-03-21T02:21:10.247Z,0.00
2023-03-21T02:22:10.275Z,0.00
2023-03-21T02:23:10.229Z,0.00
2023-03-21T02:24:10.282Z,0.00
2023-03-21T02:25:21.345Z,0.00
2023-03-21T02:26:11.202Z,0.00
2023-03-21T02:27:10.179Z,0.00
2023-03-21T02:28:10.183Z,0.00
2023-03-21T02:29:10.154Z,0.00
2023-03-21T02:30:14.913Z,0.00
2023-03-21T02:31:11.187Z,0.00
2023-03-21T02:32:20.462Z,0.00
2023-03-21T02:33:11.111Z,0.00
2023-03-21T02:34:10.134Z,0.00
2023-03-21T02:35:10.079Z,0.00
2023-03-21T02:36:14.194Z,0.00
2023-03-21T02:37:10.086Z,0.00
2023-03-21T02:38:10.059Z,0.00
2023-03-21T02:39:10.035Z,0.00
2023-03-21T02:40:10.046Z,0.00
2023-03-21T02:41:18.020Z,0.00
2023-03-21T02:42:11.048Z,0.00
2023-03-21T02:43:22.204Z,0.00
2023-03-21T02:44:10.999Z,0.00
2023-03-21T02:45:09.965Z,0.00
2023-03-21T02:46:10.030Z,0.00
2023-03-21T02:47:10.117Z,0.00
2023-03-21T02:48:14.561Z,0.00
2023-03-21T02:49:10.949Z,0.00
2023-03-21T02:50:09.901Z,0.00
2023-03-21T02:51:09.891Z,0.00
2023-03-21T02:52:17.001Z,0.00
2023-03-21T02:53:10.886Z,0.00
2023-03-21T02:54:28.127Z,0.00
2023-03-21T02:55:10.823Z,0.00
2023-03-21T02:56:09.832Z,0.00
2023-03-21T02:57:09.812Z,0.00
2023-03-21T02:58:13.299Z,0.00
2023-03-21T02:59:09.808Z,0.00
2023-03-21T03:00:16.254Z,0.00
2023-03-21T03:01:10.851Z,0.00
2023-03-21T03:02:09.750Z,0.00
2023-03-21T03:03:12.722Z,0.00
2023-03-21T03:04:10.804Z,0.00
2023-03-21T03:05:20.440Z,0.00
2023-03-21T03:06:10.737Z,0.00
2023-03-21T03:07:09.706Z,0.00
2023-03-21T03:08:09.680Z,0.00
2023-03-21T03:09:09.655Z,0.00
2023-03-21T03:10:09.686Z,0.00
2023-03-21T03:11:09.632Z,0.00
2023-03-21T03:12:09.657Z,0.00
2023-03-21T03:13:09.636Z,0.00
2023-03-21T03:14:32.232Z,0.00
2023-03-21T03:15:10.585Z,0.00
2023-03-21T03:16:09.655Z,0.00
2023-03-21T03:17:09.596Z,0.00
2023-03-21T03:18:09.559Z,0.00
2023-03-21T03:19:09.540Z,0.00
2023-03-21T03:20:16.271Z,0.00
2023-03-21T03:21:10.503Z,0.00
2023-03-21T03:22:09.522Z,0.00
2023-03-21T03:23:09.500Z,0.00
2023-03-21T03:24:09.488Z,0.00
2023-03-21T03:25:19.734Z,0.00
2023-03-21T03:26:10.477Z,0.00
2023-03-21T03:27:09.432Z,0.00
2023-03-21T03:28:09.433Z,0.00
2023-03-21T03:29:09.406Z,0.00
2023-03-21T03:30:09.434Z,0.00
2023-03-21T03:31:10.491Z,0.00
2023-03-21T03:32:09.444Z,0.00
2023-03-21T03:33:09.342Z,0.00
2023-03-21T03:34:09.400Z,0.00
2023-03-21T03:35:09.352Z,0.00
2023-03-21T03:36:10.971Z,0.00
2023-03-21T03:37:09.341Z,0.00
2023-03-21T03:38:09.316Z,0.00
2023-03-21T03:39:09.269Z,0.00
2023-03-21T03:40:09.278Z,0.00
2023-03-21T03:41:09.250Z,0.00
2023-03-21T03:42:25.305Z,0.00
2023-03-21T03:43:10.311Z,0.00
2023-03-21T03:44:09.214Z,0.00
2023-03-21T03:45:09.231Z,0.00
2023-03-21T03:46:09.234Z,0.00
2023-03-21T03:47:11.801Z,0.00
2023-03-21T03:48:09.205Z,0.00
2023-03-21T03:49:09.165Z,0.00
2023-03-21T03:50:09.145Z,0.00
2023-03-21T03:51:09.154Z,0.00
2023-03-21T03:52:09.133Z,0.00
2023-03-21T03:53:17.674Z,0.00
2023-03-21T03:54:10.104Z,0.00
2023-03-21T03:55:09.093Z,0.00
2023-03-21T03:56:09.109Z,0.00
2023-03-21T03:57:09.094Z,0.00
2023-03-21T03:58:21.333Z,0.00
2023-03-21T03:59:10.082Z,0.00
2023-03-21T04:00:09.008Z,0.00
2023-03-21T04:01:09.011Z,0.00
2023-03-21T04:02:09.004Z,0.00
2023-03-21T04:03:09.108Z,0.00
2023-03-21T04:04:13.229Z,0.00
2023-03-21T04:05:08.993Z,0.00
2023-03-21T04:06:08.929Z,0.00
2023-03-21T04:07:08.930Z,0.00
2023-03-21T04:08:08.905Z,0.00
2023-03-21T04:09:19.054Z,0.00
2023-03-21T04:10:09.909Z,0.00
2023-03-21T04:11:08.908Z,0.00
2023-03-21T04:12:08.862Z,0.00
2023-03-21T04:13:08.895Z,0.00
2023-03-21T04:14:08.835Z,0.00
2023-03-21T04:15:10.919Z,0.00
2023-03-21T04:16:08.882Z,0.00
2023-03-21T04:17:08.813Z,0.00
2023-03-21T04:18:08.786Z,0.00
2023-03-21T04:19:08.794Z,0.00
2023-03-21T04:20:13.949Z,0.00
2023-03-21T04:21:09.793Z,0.00
2023-03-21T04:22:08.749Z,0.00
2023-03-21T04:23:08.752Z,0.00
2023-03-21T04:24:08.702Z,0.00
2023-03-21T04:25:08.732Z,0.00
2023-03-21T04:26:08.689Z,0.00
2023-03-21T04:27:08.690Z,0.00
2023-03-21T04:28:08.683Z,0.00
2023-03-21T04:29:08.672Z,0.00
2023-03-21T04:30:08.628Z,0.00
2023-03-21T04:31:25.085Z,0.00
2023-03-21T04:32:09.653Z,0.00
2023-03-21T04:33:10.393Z,0.00
2023-03-21T04:34:08.675Z,0.00
2023-03-21T04:35:08.593Z,0.00
2023-03-21T04:36:08.655Z,0.00
2023-03-21T04:37:08.580Z,0.00
2023-03-21T04:38:08.519Z,0.00
2023-03-21T04:39:08.608Z,0.00
2023-03-21T04:40:08.529Z,0.00
2023-03-21T04:41:08.516Z,0.00
2023-03-21T04:42:08.475Z,0.00
2023-03-21T04:43:09.445Z,0.00
2023-03-21T04:44:08.632Z,0.00
2023-03-21T04:45:08.444Z,0.00
2023-03-21T04:46:08.426Z,0.00
2023-03-21T04:47:08.429Z,0.00
2023-03-21T04:48:08.483Z,0.00
2023-03-21T04:49:08.438Z,0.00
2023-03-21T04:50:08.382Z,0.00
2023-03-21T04:51:09.238Z,0.00
2023-03-21T04:52:08.366Z,0.00
2023-03-21T04:53:08.499Z,0.00
2023-03-21T04:54:43.848Z,0.00
2023-03-21T04:55:43.846Z,0.00
2023-03-21T04:56:43.835Z,0.00
2023-03-21T04:57:43.852Z,0.00
2023-03-21T04:58:43.735Z,1.00
2023-03-21T04:59:43.801Z,0.00
2023-03-21T05:00:43.829Z,0.00
2023-03-21T05:01:43.889Z,1.00
2023-03-21T05:02:43.728Z,0.00
2023-03-21T05:03:43.804Z,0.00
2023-03-21T05:04:43.709Z,0.00
2023-03-21T05:05:43.680Z,1.00
2023-03-21T05:06:43.687Z,0.00
2023-03-21T05:07:43.677Z,0.00
2023-03-21T05:08:50.700Z,5.00
2023-03-21T05:09:43.612Z,4.00
2023-03-21T05:10:43.580Z,1.00
2023-03-21T05:11:43.579Z,2.00
2023-03-21T05:12:43.549Z,1.00
2023-03-21T05:13:43.562Z,3.00
2023-03-21T05:14:43.550Z,3.00
2023-03-21T05:15:43.545Z,6.00
2023-03-21T05:16:43.536Z,4.00
2023-03-21T05:17:43.531Z,5.00
2023-03-21T05:18:43.482Z,6.00
2023-03-21T05:19:43.468Z,6.00
2023-03-21T05:20:43.495Z,7.00
2023-03-21T05:21:43.519Z,9.00
2023-03-21T05:22:43.425Z,12.00
2023-03-21T05:23:43.434Z,15.00
2023-03-21T05:24:43.419Z,16.00
2023-03-21T05:25:43.408Z,20.00
2023-03-21T05:26:43.394Z,25.00
2023-03-21T05:27:43.379Z,28.00
2023-03-21T05:28:43.344Z,35.00
2023-03-21T05:29:43.365Z,39.00
2023-03-21T05:30:43.350Z,45.00
2023-03-21T05:31:43.311Z,48.00
2023-03-21T05:32:43.327Z,51.00
2023-03-21T05:33:43.287Z,58.00
2023-03-21T05:34:43.256Z,59.00
2023-03-21T05:35:43.290Z,72.00
2023-03-21T05:36:43.236Z,72.00
2023-03-21T05:37:43.268Z,77.00
2023-03-21T05:38:43.205Z,83.00
2023-03-21T05:39:43.228Z,95.00
2023-03-21T05:40:43.190Z,97.00
2023-03-21T05:41:43.224Z,100.00
2023-03-21T05:42:43.155Z,107.00
2023-03-21T05:43:43.176Z,110.00
2023-03-21T05:44:43.140Z,116.00
2023-03-21T05:45:43.112Z,122.00
2023-03-21T05:46:43.126Z,131.00
2023-03-21T05:47:43.107Z,133.00
2023-03-21T05:48:43.109Z,137.00
2023-03-21T05:49:43.094Z,142.00
2023-03-21T05:50:43.090Z,151.00
2023-03-21T05:51:43.041Z,154.00
2023-03-21T05:52:43.052Z,159.00
2023-03-21T05:53:43.088Z,164.00
2023-03-21T05:54:43.074Z,171.00
2023-03-21T05:55:42.990Z,179.00
2023-03-21T05:56:43.008Z,188.00
2023-03-21T05:57:42.982Z,197.00
2023-03-21T05:58:42.990Z,202.00
2023-03-21T05:59:42.948Z,207.00
2023-03-21T06:00:42.976Z,211.00
2023-03-21T06:01:42.915Z,225.00
2023-03-21T06:02:42.955Z,235.00
2023-03-21T06:03:43.052Z,246.00
2023-03-21T06:04:42.926Z,259.00
2023-03-21T06:05:42.857Z,266.00
2023-03-21T06:06:42.904Z,258.00
2023-03-21T06:07:42.824Z,250.00
2023-03-21T06:08:42.835Z,259.00
2023-03-21T06:09:42.815Z,279.00
2023-03-21T06:10:42.843Z,292.00
2023-03-21T06:11:42.775Z,297.00
2023-03-21T06:12:42.831Z,296.00
2023-03-21T06:13:42.831Z,303.00
2023-03-21T06:14:42.769Z,300.00
2023-03-21T06:15:42.773Z,308.00
2023-03-21T06:16:42.770Z,311.00
2023-03-21T06:17:42.703Z,309.00
2023-03-21T06:18:42.741Z,319.00
2023-03-21T06:19:42.701Z,321.00
2023-03-21T06:20:42.699Z,327.00
2023-03-21T06:21:42.690Z,339.00
2023-03-21T06:22:42.677Z,351.00
2023-03-21T06:23:42.643Z,348.00
2023-03-21T06:24:42.670Z,364.00
2023-03-21T06:25:42.620Z,362.00
2023-03-21T06:26:42.629Z,368.00
2023-03-21T06:27:42.616Z,374.00
2023-03-21T06:28:42.585Z,384.00
2023-03-21T06:29:42.563Z,392.00
2023-03-21T06:30:42.564Z,404.00
2023-03-21T06:31:42.600Z,409.00
2023-03-21T06:32:42.542Z,401.00
2023-03-21T06:33:42.550Z,416.00
2023-03-21T06:34:42.510Z,416.00
2023-03-21T06:35:42.524Z,441.00
2023-03-21T06:36:42.478Z,443.00
2023-03-21T06:37:42.470Z,445.00
2023-03-21T06:38:42.465Z,464.00
2023-03-21T06:39:42.421Z,460.00
2023-03-21T06:40:42.432Z,460.00
2023-03-21T06:41:42.399Z,452.00
2023-03-21T06:42:42.414Z,449.00
2023-03-21T06:43:42.392Z,484.00
2023-03-21T06:44:42.424Z,504.00
2023-03-21T06:45:42.378Z,491.00
2023-03-21T06:46:42.364Z,511.00
2023-03-21T06:47:42.481Z,523.00
2023-03-21T06:48:42.353Z,538.00
2023-03-21T06:49:42.302Z,524.00
2023-03-21T06:50:42.290Z,523.00
2023-03-21T06:51:42.261Z,538.00
2023-03-21T06:52:42.287Z,550.00
2023-03-21T06:53:42.240Z,543.00
2023-03-21T06:54:42.296Z,546.00
2023-03-21T06:55:42.212Z,533.00
2023-03-21T06:56:42.245Z,533.00
2023-03-21T06:57:42.193Z,530.00
2023-03-21T06:58:42.241Z,546.00
2023-03-21T06:59:42.167Z,545.00
2023-03-21T07:00:42.291Z,546.00
2023-03-21T07:01:42.158Z,545.00
2023-03-21T07:02:42.223Z,524.00
2023-03-21T07:03:42.107Z,524.00
2023-03-21T07:04:42.146Z,566.00
2023-03-21T07:05:42.077Z,563.00
2023-03-21T07:06:42.204Z,551.00
2023-03-21T07:07:42.055Z,569.00
2023-03-21T07:08:42.069Z,583.00
2023-03-21T07:09:42.048Z,587.00
2023-03-21T07:10:44.287Z,590.00
2023-03-21T07:11:42.013Z,592.00
2023-03-21T07:12:42.058Z,547.00
2023-03-21T07:13:42.018Z,456.00
2023-03-21T07:14:42.045Z,714.00
2023-03-21T07:15:41.967Z,612.00
2023-03-21T07:16:42.012Z,638.00
2023-03-21T07:17:41.965Z,370.00
2023-03-21T07:18:41.946Z,797.00
2023-03-21T07:19:43.862Z,524.00
2023-03-21T07:20:41.912Z,409.00
2023-03-21T07:21:41.890Z,478.00
2023-03-21T07:22:41.947Z,556.00
2023-03-21T07:23:41.858Z,582.00
2023-03-21T07:24:41.858Z,690.00
2023-03-21T07:25:42.091Z,632.00
2023-03-21T07:26:41.847Z,782.00
2023-03-21T07:27:41.801Z,596.00
2023-03-21T07:28:41.836Z,900.00
2023-03-21T07:29:41.800Z,796.00
2023-03-21T07:30:41.798Z,693.00
2023-03-21T07:31:41.869Z,819.00
2023-03-21T07:32:41.773Z,587.00
2023-03-21T07:33:41.757Z,987.00
2023-03-21T07:34:41.751Z,830.00
2023-03-21T07:35:41.903Z,845.00
2023-03-21T07:36:41.713Z,899.00
2023-03-21T07:37:42.402Z,867.00
2023-03-21T07:38:41.730Z,852.00
2023-03-21T07:39:41.687Z,638.00
2023-03-21T07:40:41.658Z,1014.00
2023-03-21T07:41:41.610Z,871.00
2023-03-21T07:42:41.822Z,860.00
2023-03-21T07:43:41.599Z,860.00
2023-03-21T07:44:41.681Z,864.00
2023-03-21T07:45:41.937Z,885.00
2023-03-21T07:46:41.576Z,1060.00
2023-03-21T07:47:42.541Z,966.00
2023-03-21T07:48:41.562Z,534.00
2023-03-21T07:49:41.517Z,1150.00
2023-03-21T07:50:41.566Z,673.00
2023-03-21T07:51:41.589Z,998.00
2023-03-21T07:52:41.532Z,1070.00
2023-03-21T07:53:45.360Z,842.00
2023-03-21T07:54:41.514Z,1031.00
2023-03-21T07:55:41.444Z,1013.00
2023-03-21T07:56:41.709Z,979.00
2023-03-21T07:57:41.440Z,989.00
2023-03-21T07:58:41.486Z,1002.00
2023-03-21T07:59:41.396Z,985.00
2023-03-21T08:00:41.450Z,987.00
2023-03-21T08:01:41.377Z,982.00
2023-03-21T08:02:41.613Z,958.00
2023-03-21T08:03:41.416Z,974.00
2023-03-21T08:04:41.352Z,967.00
2023-03-21T08:05:41.946Z,983.00
2023-03-21T08:06:41.316Z,989.00
2023-03-21T08:07:41.314Z,986.00
2023-03-21T08:08:41.397Z,985.00
2023-03-21T08:09:41.255Z,1002.00
2023-03-21T08:10:41.378Z,981.00
2023-03-21T08:11:41.240Z,969.00
2023-03-21T08:12:41.229Z,986.00
2023-03-21T08:13:41.265Z,1011.00
2023-03-21T08:14:41.212Z,1019.00
2023-03-21T08:15:41.211Z,1025.00
2023-03-21T08:16:41.228Z,1051.00
2023-03-21T08:17:41.163Z,1048.00
2023-03-21T08:18:41.212Z,1021.00
2023-03-21T08:19:41.134Z,1008.00
2023-03-21T08:20:41.141Z,1013.00
2023-03-21T08:21:41.088Z,999.00
2023-03-21T08:22:41.110Z,980.00
2023-03-21T08:23:41.130Z,978.00
2023-03-21T08:24:41.110Z,943.00
2023-03-21T08:25:41.046Z,934.00
2023-03-21T08:26:41.098Z,924.00
2023-03-21T08:27:41.025Z,905.00
2023-03-21T08:28:41.037Z,892.00
2023-03-21T08:29:40.979Z,888.00
2023-03-21T08:30:41.024Z,869.00
2023-03-21T08:31:40.979Z,857.00
2023-03-21T08:32:40.967Z,840.00
2023-03-21T08:33:40.945Z,839.00
2023-03-21T08:34:40.952Z,857.00
2023-03-21T08:35:41.556Z,872.00
2023-03-21T08:36:40.933Z,859.00
2023-03-21T08:37:40.917Z,863.00
2023-03-21T08:38:40.883Z,890.00
2023-03-21T08:39:41.661Z,795.00
2023-03-21T08:40:40.881Z,660.00
2023-03-21T08:41:40.853Z,761.00
2023-03-21T08:42:40.837Z,840.00
2023-03-21T08:43:40.804Z,825.00
2023-03-21T08:44:40.824Z,533.00
2023-03-21T08:45:40.802Z,700.00
2023-03-21T08:46:40.895Z,1042.00
2023-03-21T08:47:40.869Z,1044.00
2023-03-21T08:48:40.780Z,889.00
2023-03-21T08:49:40.749Z,943.00
2023-03-21T08:50:40.735Z,983.00
2023-03-21T08:51:40.728Z,796.00
2023-03-21T08:52:40.745Z,856.00
2023-03-21T08:53:40.700Z,941.00
2023-03-21T08:54:40.710Z,486.00
2023-03-21T08:55:40.665Z,1071.00
2023-03-21T08:56:40.651Z,931.00
2023-03-21T08:57:40.645Z,841.00
2023-03-21T08:58:40.656Z,908.00
2023-03-21T08:59:41.355Z,725.00
2023-03-21T09:00:40.638Z,901.00
2023-03-21T09:01:40.652Z,881.00
2023-03-21T09:02:41.540Z,870.00
2023-03-21T09:03:40.580Z,903.00
2023-03-21T09:04:40.774Z,889.00
2023-03-21T09:05:41.274Z,878.00
2023-03-21T09:06:41.461Z,916.00
2023-03-21T09:07:40.574Z,1058.00
2023-03-21T09:08:40.905Z,1094.00
2023-03-21T09:09:40.482Z,978.00
2023-03-21T09:10:40.529Z,902.00
2023-03-21T09:11:40.438Z,908.00
2023-03-21T09:12:40.788Z,770.00
2023-03-21T09:13:41.029Z,976.00
2023-03-21T09:14:40.787Z,900.00
2023-03-21T09:15:41.114Z,563.00
2023-03-21T09:16:41.203Z,1029.00
2023-03-21T09:17:41.167Z,1037.00
2023-03-21T09:18:40.879Z,675.00
2023-03-21T09:19:40.424Z,1229.00
2023-03-21T09:20:40.636Z,829.00
2023-03-21T09:21:40.374Z,1029.00
2023-03-21T09:22:42.779Z,884.00
2023-03-21T09:23:40.352Z,866.00
2023-03-21T09:24:40.334Z,1022.00
2023-03-21T09:25:41.237Z,768.00
2023-03-21T09:26:40.501Z,1024.00
2023-03-21T09:27:41.676Z,924.00
2023-03-21T09:28:40.278Z,902.00
2023-03-21T09:29:40.249Z,870.00
2023-03-21T09:30:41.148Z,706.00
2023-03-21T09:31:40.317Z,1135.00
2023-03-21T09:32:41.136Z,839.00
2023-03-21T09:33:40.270Z,917.00
2023-03-21T09:34:40.174Z,962.00
2023-03-21T09:35:40.734Z,929.00
2023-03-21T09:36:40.171Z,950.00
2023-03-21T09:37:40.936Z,967.00
2023-03-21T09:38:40.105Z,956.00
2023-03-21T09:39:40.075Z,1001.00
2023-03-21T09:40:40.125Z,982.00
2023-03-21T09:41:40.105Z,1031.00
2023-03-21T09:42:40.092Z,1001.00
2023-03-21T09:43:40.410Z,1018.00
2023-03-21T09:44:40.054Z,1020.00
2023-03-21T09:45:40.472Z,1061.00
2023-03-21T09:46:40.055Z,1078.00
2023-03-21T09:47:40.037Z,1096.00
2023-03-21T09:48:50.627Z,1106.00
2023-03-21T09:49:40.941Z,1113.00
2023-03-21T09:50:39.957Z,1159.00
2023-03-21T09:51:40.002Z,1291.00
2023-03-21T09:52:39.950Z,1183.00
2023-03-21T09:53:39.900Z,1257.00
2023-03-21T09:54:39.970Z,1249.00
2023-03-21T09:55:40.264Z,1409.00
2023-03-21T09:56:40.595Z,1314.00
2023-03-21T09:57:39.889Z,1591.00
2023-03-21T09:58:39.929Z,1580.00
2023-03-21T09:59:39.816Z,1375.00
2023-03-21T10:00:40.084Z,1392.00
2023-03-21T10:01:39.875Z,1270.00
2023-03-21T10:02:39.802Z,1620.00
2023-03-21T10:03:39.783Z,1326.00
2023-03-21T10:04:39.949Z,1598.00
2023-03-21T10:05:40.222Z,1618.00
2023-03-21T10:06:39.825Z,1547.00
2023-03-21T10:07:39.722Z,1379.00
2023-03-21T10:08:39.731Z,1364.00
2023-03-21T10:09:39.701Z,1700.00
2023-03-21T10:10:40.138Z,1431.00
2023-03-21T10:11:39.702Z,1674.00
2023-03-21T10:12:39.778Z,1537.00
2023-03-21T10:13:39.699Z,1557.00
2023-03-21T10:14:44.023Z,1494.00
2023-03-21T10:15:40.942Z,1390.00
2023-03-21T10:16:39.650Z,1544.00
2023-03-21T10:17:39.688Z,1611.00
2023-03-21T10:18:39.626Z,1327.00
2023-03-21T10:19:39.843Z,1549.00
2023-03-21T10:20:39.674Z,1617.00
2023-03-21T10:22:40.536Z,1608.00
2023-03-21T10:23:39.555Z,1635.00
2023-03-21T10:24:39.563Z,1767.00
2023-03-21T10:25:39.810Z,1668.00
2023-03-21T10:26:39.495Z,1362.00
2023-03-21T10:27:39.450Z,1733.00
2023-03-21T10:28:52.403Z,1661.00
2023-03-21T10:29:40.516Z,1550.00
2023-03-21T10:30:39.413Z,1462.00
2023-03-21T10:31:39.447Z,1613.00
2023-03-21T10:32:39.471Z,1784.00
2023-03-21T10:33:39.505Z,1555.00
2023-03-21T10:34:39.375Z,1677.00
2023-03-21T10:35:39.914Z,1796.00
2023-03-21T10:36:39.377Z,1673.00
2023-03-21T10:37:39.343Z,1682.00
2023-03-21T10:38:39.385Z,1635.00
2023-03-21T10:39:39.322Z,1790.00
2023-03-21T10:40:39.294Z,1633.00
2023-03-21T10:41:39.667Z,1730.00
2023-03-21T10:42:39.475Z,1755.00
2023-03-21T10:43:39.272Z,1747.00
2023-03-21T10:44:39.240Z,1722.00
2023-03-21T10:45:39.600Z,1757.00
2023-03-21T10:46:39.539Z,1758.00
2023-03-21T10:47:39.935Z,1783.00
2023-03-21T10:48:39.365Z,1788.00
2023-03-21T10:50:13.059Z,1811.00
2023-03-21T10:50:40.217Z,1799.00
2023-03-21T10:51:39.179Z,1809.00
2023-03-21T10:52:39.122Z,1816.00
2023-03-21T10:53:39.154Z,1820.00
2023-03-21T10:54:39.101Z,1808.00
2023-03-21T10:55:39.358Z,1812.00
2023-03-21T10:56:39.376Z,1822.00
2023-03-21T10:57:39.100Z,1819.00
2023-03-21T10:58:39.067Z,1845.00
2023-03-21T10:59:39.079Z,1812.00
2023-03-21T11:00:39.019Z,1817.00
2023-03-21T11:01:39.135Z,1820.00
2023-03-21T11:02:39.023Z,1837.00
2023-03-21T11:03:39.197Z,1833.00
2023-03-21T11:04:38.965Z,1804.00
2023-03-21T11:05:39.218Z,1832.00
2023-03-21T11:06:38.937Z,1816.00
2023-03-21T11:07:38.933Z,1821.00
2023-03-21T11:08:39.333Z,1822.00
2023-03-21T11:09:45.981Z,1816.00
2023-03-21T11:10:40.673Z,1811.00
2023-03-21T11:11:38.970Z,1838.00
2023-03-21T11:12:38.853Z,1821.00
2023-03-21T11:13:38.940Z,1826.00
2023-03-21T11:14:39.050Z,1832.00
2023-03-21T11:15:39.282Z,1820.00
2023-03-21T11:16:39.837Z,1819.00
2023-03-21T11:17:38.828Z,1835.00
2023-03-21T11:18:38.762Z,1871.00
2023-03-21T11:19:38.821Z,1858.00
2023-03-21T11:20:38.794Z,1868.00
2023-03-21T11:21:38.804Z,1866.00
2023-03-21T11:22:38.712Z,1837.00
2023-03-21T11:23:38.747Z,1838.00
2023-03-21T11:24:38.714Z,1840.00
2023-03-21T11:25:39.014Z,1858.00
2023-03-21T11:26:38.671Z,1844.00
2023-03-21T11:27:38.695Z,1826.00
2023-03-21T11:28:38.648Z,1822.00
2023-03-21T11:29:38.759Z,1864.00
2023-03-21T11:30:38.660Z,1865.00
2023-03-21T11:31:38.638Z,1849.00
2023-03-21T11:32:38.614Z,1855.00
2023-03-21T11:33:38.782Z,1827.00
2023-03-21T11:34:39.787Z,1828.00
2023-03-21T11:35:39.030Z,1843.00
2023-03-21T11:36:38.537Z,1839.00
2023-03-21T11:37:38.567Z,1842.00
2023-03-21T11:38:38.512Z,1890.00
2023-03-21T11:39:38.542Z,1899.00
2023-03-21T11:40:38.498Z,1891.00
2023-03-21T11:41:38.516Z,1903.00
2023-03-21T11:42:38.477Z,1953.00
2023-03-21T11:43:38.598Z,1953.00
2023-03-21T11:44:38.434Z,1957.00
2023-03-21T11:45:38.971Z,1922.00
2023-03-21T11:46:38.447Z,1909.00
2023-03-21T11:47:38.622Z,1907.00
2023-03-21T11:48:38.406Z,1918.00
2023-03-21T11:49:38.401Z,1916.00
2023-03-21T11:50:38.387Z,1921.00
2023-03-21T11:51:38.401Z,1917.00
2023-03-21T11:52:38.369Z,1929.00
2023-03-21T11:53:38.358Z,1941.00
2023-03-21T11:54:38.318Z,1969.00
2023-03-21T11:55:38.828Z,1930.00
2023-03-21T11:56:38.331Z,1953.00
2023-03-21T11:57:38.349Z,1983.00
2023-03-21T11:58:38.536Z,1998.00
2023-03-21T11:59:38.340Z,1989.00
2023-03-21T12:00:38.255Z,1982.00
2023-03-21T12:01:38.257Z,2011.00
2023-03-21T12:02:38.309Z,2011.00
2023-03-21T12:03:47.108Z,2083.00
2023-03-21T12:04:39.249Z,2010.00
2023-03-21T12:05:39.224Z,2032.00
2023-03-21T12:06:38.147Z,1984.00
2023-03-21T12:07:38.183Z,2025.00
2023-03-21T12:08:38.165Z,2048.00
2023-03-21T12:09:38.207Z,1960.00
2023-03-21T12:10:38.134Z,2013.00
2023-03-21T12:11:38.149Z,2033.00
2023-03-21T12:12:39.487Z,2024.00
2023-03-21T12:13:38.081Z,2008.00
2023-03-21T12:14:38.040Z,2022.00
2023-03-21T12:15:38.491Z,2047.00
2023-03-21T12:16:38.130Z,2032.00
2023-03-21T12:17:38.061Z,2066.00
2023-03-21T12:18:38.033Z,2048.00
2023-03-21T12:19:38.086Z,2091.00
2023-03-21T12:20:38.841Z,2083.00
2023-03-21T12:21:38.017Z,2092.00
2023-03-21T12:22:37.941Z,2062.00
2023-03-21T12:23:38.035Z,2072.00
2023-03-21T12:24:37.929Z,2063.00
2023-03-21T12:25:38.219Z,2089.00
2023-03-21T12:26:37.897Z,2095.00
2023-03-21T12:27:37.936Z,2101.00
2023-03-21T12:28:37.855Z,2069.00
2023-03-21T12:29:37.905Z,2047.00
2023-03-21T12:30:37.884Z,2128.00
2023-03-21T12:31:37.965Z,2086.00
2023-03-21T12:32:37.848Z,2096.00
2023-03-21T12:33:37.835Z,2042.00
2023-03-21T12:34:37.904Z,1981.00
2023-03-21T12:35:38.187Z,1953.00
2023-03-21T12:36:37.777Z,1967.00
2023-03-21T12:37:37.777Z,2018.00
2023-03-21T12:38:37.768Z,2088.00
2023-03-21T12:39:37.749Z,2157.00
2023-03-21T12:40:37.697Z,2147.00
2023-03-21T12:41:37.703Z,2119.00
2023-03-21T12:42:37.689Z,2104.00
2023-03-21T12:43:37.713Z,2098.00
2023-03-21T12:44:37.642Z,2109.00
2023-03-21T12:45:46.682Z,2092.00